sensor_id;sensor_type;location;lat;lon;timestamp;temperature;humidity
4501;DHT22;2263;54.654;9.410;2022-09-03T00:00:33;19.60;58.40
4501;DHT22;2263;54.654;9.410;2022-09-03T00:03:24;19.50;58.40
4501;DHT22;2263;54.654;9.410;2022-09-03T00:14:10;19.50;58.40
4501;DHT22;2263;54.654;9.410;2022-09-03T00:16:49;19.50;58.50
4501;DHT22;2263;54.654;9.410;2022-09-03T00:19:22;19.50;58.40
4501;DHT22;2263;54.654;9.410;2022-09-03T00:24:57;19.50;58.50
4501;DHT22;2263;54.654;9.410;2022-09-03T00:27:28;19.40;58.50
4501;DHT22;2263;54.654;9.410;2022-09-03T00:30:08;19.40;58.50
4501;DHT22;2263;54.654;9.410;2022-09-03T00:35:21;19.40;58.50
4501;DHT22;2263;54.654;9.410;2022-09-03T00:37:52;19.40;58.60
4501;DHT22;2263;54.654;9.410;2022-09-03T00:45:58;19.30;58.60
4501;DHT22;2263;54.654;9.410;2022-09-03T00:51:36;19.30;58.60
4501;DHT22;2263;54.654;9.410;2022-09-03T00:54:23;19.30;58.60
4501;DHT22;2263;54.654;9.410;2022-09-03T01:00:20;19.20;58.50
4501;DHT22;2263;54.654;9.410;2022-09-03T01:08:52;19.20;58.70
4501;DHT22;2263;54.654;9.410;2022-09-03T01:14:19;19.20;58.80
4501;DHT22;2263;54.654;9.410;2022-09-03T01:30:13;19.10;58.90
4501;DHT22;2263;54.654;9.410;2022-09-03T01:32:57;19.10;58.90
4501;DHT22;2263;54.654;9.410;2022-09-03T01:46:38;19.00;59.10
4501;DHT22;2263;54.654;9.410;2022-09-03T01:49:28;19.00;59.20
4501;DHT22;2263;54.654;9.410;2022-09-03T01:52:24;18.90;59.10
4501;DHT22;2263;54.654;9.410;2022-09-03T01:55:08;18.90;59.10
4501;DHT22;2263;54.654;9.410;2022-09-03T02:00:30;18.90;59.10
4501;DHT22;2263;54.654;9.410;2022-09-03T02:03:04;18.90;59.10
4501;DHT22;2263;54.654;9.410;2022-09-03T02:05:33;18.90;59.20
4501;DHT22;2263;54.654;9.410;2022-09-03T02:08:09;18.90;59.20
4501;DHT22;2263;54.654;9.410;2022-09-03T02:10:44;18.90;59.20
4501;DHT22;2263;54.654;9.410;2022-09-03T02:13:17;18.80;59.10
4501;DHT22;2263;54.654;9.410;2022-09-03T02:15:46;18.80;59.00
4501;DHT22;2263;54.654;9.410;2022-09-03T02:18:28;18.80;59.10
4501;DHT22;2263;54.654;9.410;2022-09-03T02:20:58;18.80;59.10
4501;DHT22;2263;54.654;9.410;2022-09-03T02:23:27;18.80;59.10
4501;DHT22;2263;54.654;9.410;2022-09-03T02:25:59;18.80;59.20
4501;DHT22;2263;54.654;9.410;2022-09-03T02:28:28;18.80;59.10
4501;DHT22;2263;54.654;9.410;2022-09-03T02:30:57;18.70;59.00
4501;DHT22;2263;54.654;9.410;2022-09-03T02:33:25;18.70;59.10
4501;DHT22;2263;54.654;9.410;2022-09-03T02:35:52;18.70;59.20
4501;DHT22;2263;54.654;9.410;2022-09-03T02:38:23;18.70;59.20
4501;DHT22;2263;54.654;9.410;2022-09-03T02:40:54;18.70;59.10
4501;DHT22;2263;54.654;9.410;2022-09-03T02:46:17;18.70;59.20
4501;DHT22;2263;54.654;9.410;2022-09-03T02:48:47;18.60;59.20
4501;DHT22;2263;54.654;9.410;2022-09-03T02:51:15;18.60;59.10
4501;DHT22;2263;54.654;9.410;2022-09-03T02:53:43;18.60;59.10
4501;DHT22;2263;54.654;9.410;2022-09-03T02:56:11;18.60;59.10
4501;DHT22;2263;54.654;9.410;2022-09-03T02:58:38;18.60;59.20
4501;DHT22;2263;54.654;9.410;2022-09-03T03:01:06;18.60;59.20
4501;DHT22;2263;54.654;9.410;2022-09-03T03:03:33;18.60;59.20
4501;DHT22;2263;54.654;9.410;2022-09-03T03:06:03;18.50;59.10
4501;DHT22;2263;54.654;9.410;2022-09-03T03:08:31;18.50;59.10
4501;DHT22;2263;54.654;9.410;2022-09-03T03:11:01;18.50;59.10
4501;DHT22;2263;54.654;9.410;2022-09-03T03:13:29;18.50;59.20
4501;DHT22;2263;54.654;9.410;2022-09-03T03:16:02;18.50;59.30
4501;DHT22;2263;54.654;9.410;2022-09-03T03:18:31;18.50;59.30
4501;DHT22;2263;54.654;9.410;2022-09-03T03:21:10;18.50;59.20
4501;DHT22;2263;54.654;9.410;2022-09-03T03:23:39;18.40;59.10
4501;DHT22;2263;54.654;9.410;2022-09-03T03:26:09;18.40;59.20
4501;DHT22;2263;54.654;9.410;2022-09-03T03:28:37;18.40;59.20
4501;DHT22;2263;54.654;9.410;2022-09-03T03:31:09;18.40;59.30
4501;DHT22;2263;54.654;9.410;2022-09-03T03:33:39;18.40;59.30
4501;DHT22;2263;54.654;9.410;2022-09-03T03:36:08;18.40;59.30
4501;DHT22;2263;54.654;9.410;2022-09-03T03:38:36;18.40;59.50
4501;DHT22;2263;54.654;9.410;2022-09-03T03:41:15;18.30;59.40
4501;DHT22;2263;54.654;9.410;2022-09-03T03:43:45;18.30;59.30
4501;DHT22;2263;54.654;9.410;2022-09-03T03:46:17;18.30;59.30
4501;DHT22;2263;54.654;9.410;2022-09-03T03:48:49;18.30;59.40
4501;DHT22;2263;54.654;9.410;2022-09-03T03:51:20;18.30;59.50
4501;DHT22;2263;54.654;9.410;2022-09-03T03:53:48;18.30;59.40
4501;DHT22;2263;54.654;9.410;2022-09-03T03:56:17;18.30;59.60
4501;DHT22;2263;54.654;9.410;2022-09-03T03:58:46;18.30;59.70
4501;DHT22;2263;54.654;9.410;2022-09-03T04:01:17;18.20;59.60
4501;DHT22;2263;54.654;9.410;2022-09-03T04:03:45;18.20;59.60
4501;DHT22;2263;54.654;9.410;2022-09-03T04:06:14;18.20;59.70
4501;DHT22;2263;54.654;9.410;2022-09-03T04:08:43;18.20;60.30
4501;DHT22;2263;54.654;9.410;2022-09-03T04:11:22;18.20;59.80
4501;DHT22;2263;54.654;9.410;2022-09-03T04:13:50;18.20;59.80
4501;DHT22;2263;54.654;9.410;2022-09-03T04:16:20;18.20;59.80
4501;DHT22;2263;54.654;9.410;2022-09-03T04:18:48;18.20;59.80
4501;DHT22;2263;54.654;9.410;2022-09-03T04:21:21;18.10;59.80
4501;DHT22;2263;54.654;9.410;2022-09-03T04:23:49;18.10;59.70
4501;DHT22;2263;54.654;9.410;2022-09-03T04:26:26;18.10;59.90
4501;DHT22;2263;54.654;9.410;2022-09-03T04:29:05;18.10;59.90
4501;DHT22;2263;54.654;9.410;2022-09-03T04:31:34;18.10;59.90
4501;DHT22;2263;54.654;9.410;2022-09-03T04:34:03;18.10;59.90
4501;DHT22;2263;54.654;9.410;2022-09-03T04:36:32;18.10;60.10
4501;DHT22;2263;54.654;9.410;2022-09-03T04:39:01;18.10;60.00
4501;DHT22;2263;54.654;9.410;2022-09-03T04:41:30;18.10;60.00
4501;DHT22;2263;54.654;9.410;2022-09-03T04:43:58;18.00;60.00
4501;DHT22;2263;54.654;9.410;2022-09-03T04:46:27;18.00;60.00
4501;DHT22;2263;54.654;9.410;2022-09-03T04:49:00;18.00;60.10
4501;DHT22;2263;54.654;9.410;2022-09-03T04:51:28;18.00;60.10
4501;DHT22;2263;54.654;9.410;2022-09-03T04:53:59;18.00;60.10
4501;DHT22;2263;54.654;9.410;2022-09-03T04:56:29;18.00;60.10
4501;DHT22;2263;54.654;9.410;2022-09-03T04:59:02;18.00;60.20
4501;DHT22;2263;54.654;9.410;2022-09-03T05:01:31;18.00;60.30
4501;DHT22;2263;54.654;9.410;2022-09-03T05:03:59;18.00;60.30
4501;DHT22;2263;54.654;9.410;2022-09-03T05:06:31;18.00;60.30
4501;DHT22;2263;54.654;9.410;2022-09-03T05:08:59;18.00;60.30
4501;DHT22;2263;54.654;9.410;2022-09-03T05:11:27;17.90;60.20
4501;DHT22;2263;54.654;9.410;2022-09-03T05:13:57;18.00;60.30
4501;DHT22;2263;54.654;9.410;2022-09-03T05:16:25;17.90;60.40
4501;DHT22;2263;54.654;9.410;2022-09-03T05:18:56;17.90;60.40
4501;DHT22;2263;54.654;9.410;2022-09-03T05:21:26;17.90;60.30
4501;DHT22;2263;54.654;9.410;2022-09-03T05:23:54;17.90;60.40
4501;DHT22;2263;54.654;9.410;2022-09-03T05:26:24;17.90;60.40
4501;DHT22;2263;54.654;9.410;2022-09-03T05:28:53;17.90;60.40
4501;DHT22;2263;54.654;9.410;2022-09-03T05:31:23;17.90;60.50
4501;DHT22;2263;54.654;9.410;2022-09-03T05:33:56;17.90;60.70
4501;DHT22;2263;54.654;9.410;2022-09-03T05:36:31;17.90;60.60
4501;DHT22;2263;54.654;9.410;2022-09-03T05:39:00;17.90;60.70
4501;DHT22;2263;54.654;9.410;2022-09-03T05:41:28;17.90;60.70
4501;DHT22;2263;54.654;9.410;2022-09-03T05:43:56;17.90;60.70
4501;DHT22;2263;54.654;9.410;2022-09-03T05:46:31;17.90;60.70
4501;DHT22;2263;54.654;9.410;2022-09-03T05:49:00;17.80;60.80
4501;DHT22;2263;54.654;9.410;2022-09-03T05:51:29;17.90;60.80
4501;DHT22;2263;54.654;9.410;2022-09-03T05:53:57;17.90;60.80
4501;DHT22;2263;54.654;9.410;2022-09-03T05:56:27;17.90;60.90
4501;DHT22;2263;54.654;9.410;2022-09-03T05:58:57;17.80;60.80
4501;DHT22;2263;54.654;9.410;2022-09-03T06:01:29;17.90;60.80
4501;DHT22;2263;54.654;9.410;2022-09-03T06:04:02;17.80;60.90
4501;DHT22;2263;54.654;9.410;2022-09-03T06:06:31;17.80;61.00
4501;DHT22;2263;54.654;9.410;2022-09-03T06:09:05;17.80;60.90
4501;DHT22;2263;54.654;9.410;2022-09-03T06:11:34;17.80;61.10
4501;DHT22;2263;54.654;9.410;2022-09-03T06:14:04;17.80;61.10
4501;DHT22;2263;54.654;9.410;2022-09-03T06:16:34;17.80;61.00
4501;DHT22;2263;54.654;9.410;2022-09-03T06:19:02;17.80;61.30
4501;DHT22;2263;54.654;9.410;2022-09-03T06:21:29;17.80;61.30
4501;DHT22;2263;54.654;9.410;2022-09-03T06:23:57;17.80;61.30
4501;DHT22;2263;54.654;9.410;2022-09-03T06:26:27;17.80;61.50
4501;DHT22;2263;54.654;9.410;2022-09-03T06:28:56;17.80;61.40
4501;DHT22;2263;54.654;9.410;2022-09-03T06:31:23;17.80;61.30
4501;DHT22;2263;54.654;9.410;2022-09-03T06:33:52;17.80;61.20
4501;DHT22;2263;54.654;9.410;2022-09-03T06:36:22;17.80;61.60
4501;DHT22;2263;54.654;9.410;2022-09-03T06:38:54;17.80;61.40
4501;DHT22;2263;54.654;9.410;2022-09-03T06:41:25;17.90;61.50
4501;DHT22;2263;54.654;9.410;2022-09-03T06:43:56;17.90;61.50
4501;DHT22;2263;54.654;9.410;2022-09-03T06:46:34;17.90;61.60
4501;DHT22;2263;54.654;9.410;2022-09-03T06:49:05;17.90;61.50
4501;DHT22;2263;54.654;9.410;2022-09-03T06:51:33;17.90;62.20
4501;DHT22;2263;54.654;9.410;2022-09-03T06:54:03;17.90;61.60
4501;DHT22;2263;54.654;9.410;2022-09-03T06:56:33;17.90;61.70
4501;DHT22;2263;54.654;9.410;2022-09-03T06:59:11;17.90;61.70
4501;DHT22;2263;54.654;9.410;2022-09-03T07:01:41;17.90;62.10
4501;DHT22;2263;54.654;9.410;2022-09-03T07:04:12;17.90;62.20
4501;DHT22;2263;54.654;9.410;2022-09-03T07:06:41;18.00;62.30
4501;DHT22;2263;54.654;9.410;2022-09-03T07:09:12;18.00;62.20
4501;DHT22;2263;54.654;9.410;2022-09-03T07:11:41;18.00;62.10
4501;DHT22;2263;54.654;9.410;2022-09-03T07:14:19;18.00;62.00
4501;DHT22;2263;54.654;9.410;2022-09-03T07:16:48;18.10;62.00
4501;DHT22;2263;54.654;9.410;2022-09-03T07:19:15;18.10;62.00
4501;DHT22;2263;54.654;9.410;2022-09-03T07:21:44;18.10;61.90
4501;DHT22;2263;54.654;9.410;2022-09-03T07:24:17;18.10;61.80
4501;DHT22;2263;54.654;9.410;2022-09-03T07:26:46;18.20;61.90
4501;DHT22;2263;54.654;9.410;2022-09-03T07:29:15;18.20;61.90
4501;DHT22;2263;54.654;9.410;2022-09-03T07:31:50;18.20;61.90
4501;DHT22;2263;54.654;9.410;2022-09-03T07:34:19;18.20;61.80
4501;DHT22;2263;54.654;9.410;2022-09-03T07:36:48;18.30;61.70
4501;DHT22;2263;54.654;9.410;2022-09-03T07:39:18;18.30;61.80
4501;DHT22;2263;54.654;9.410;2022-09-03T07:41:46;18.30;61.70
4501;DHT22;2263;54.654;9.410;2022-09-03T07:44:14;18.30;61.60
4501;DHT22;2263;54.654;9.410;2022-09-03T07:46:46;18.40;61.60
4501;DHT22;2263;54.654;9.410;2022-09-03T07:49:18;18.40;61.70
4501;DHT22;2263;54.654;9.410;2022-09-03T07:51:46;18.40;61.60
4501;DHT22;2263;54.654;9.410;2022-09-03T07:54:16;18.50;61.60
4501;DHT22;2263;54.654;9.410;2022-09-03T07:56:43;18.50;61.60
4501;DHT22;2263;54.654;9.410;2022-09-03T07:59:11;18.50;61.30
4501;DHT22;2263;54.654;9.410;2022-09-03T08:01:38;18.50;61.20
4501;DHT22;2263;54.654;9.410;2022-09-03T08:04:07;18.60;61.30
4501;DHT22;2263;54.654;9.410;2022-09-03T08:06:36;18.60;61.30
4501;DHT22;2263;54.654;9.410;2022-09-03T08:09:07;18.60;61.30
4501;DHT22;2263;54.654;9.410;2022-09-03T08:11:39;18.70;61.20
4501;DHT22;2263;54.654;9.410;2022-09-03T08:14:09;18.70;61.10
4501;DHT22;2263;54.654;9.410;2022-09-03T08:16:39;18.80;61.20
4501;DHT22;2263;54.654;9.410;2022-09-03T08:19:08;18.70;61.00
4501;DHT22;2263;54.654;9.410;2022-09-03T08:21:37;18.80;61.10
4501;DHT22;2263;54.654;9.410;2022-09-03T08:24:05;18.90;60.90
4501;DHT22;2263;54.654;9.410;2022-09-03T08:26:37;18.90;60.60
4501;DHT22;2263;54.654;9.410;2022-09-03T08:29:05;18.90;60.30
4501;DHT22;2263;54.654;9.410;2022-09-03T08:31:33;18.90;60.30
4501;DHT22;2263;54.654;9.410;2022-09-03T08:34:02;19.00;60.00
4501;DHT22;2263;54.654;9.410;2022-09-03T08:36:33;19.00;59.90
4501;DHT22;2263;54.654;9.410;2022-09-03T08:39:02;19.00;59.70
4501;DHT22;2263;54.654;9.410;2022-09-03T08:46:56;19.10;60.00
4501;DHT22;2263;54.654;9.410;2022-09-03T08:52:05;19.20;59.40
4501;DHT22;2263;54.654;9.410;2022-09-03T08:54:35;19.20;59.50
4501;DHT22;2263;54.654;9.410;2022-09-03T08:57:03;19.20;59.40
4501;DHT22;2263;54.654;9.410;2022-09-03T08:59:32;19.30;59.40
4501;DHT22;2263;54.654;9.410;2022-09-03T09:02:16;19.30;59.00
4501;DHT22;2263;54.654;9.410;2022-09-03T09:05:11;19.30;59.00
4501;DHT22;2263;54.654;9.410;2022-09-03T09:10:15;19.50;57.50
4501;DHT22;2263;54.654;9.410;2022-09-03T09:16:02;19.50;58.00
4501;DHT22;2263;54.654;9.410;2022-09-03T09:21:17;19.60;57.50
4501;DHT22;2263;54.654;9.410;2022-09-03T09:23:50;19.60;57.10
4501;DHT22;2263;54.654;9.410;2022-09-03T09:26:21;19.60;57.20
4501;DHT22;2263;54.654;9.410;2022-09-03T09:29:01;19.70;57.10
4501;DHT22;2263;54.654;9.410;2022-09-03T09:31:30;19.70;56.90
4501;DHT22;2263;54.654;9.410;2022-09-03T09:34:04;19.70;56.50
4501;DHT22;2263;54.654;9.410;2022-09-03T09:39:15;19.60;56.60
4501;DHT22;2263;54.654;9.410;2022-09-03T09:41:59;19.60;56.70
4501;DHT22;2263;54.654;9.410;2022-09-03T09:44:42;19.60;56.30
4501;DHT22;2263;54.654;9.410;2022-09-03T09:47:20;19.70;56.70
4501;DHT22;2263;54.654;9.410;2022-09-03T09:49:58;19.70;56.40
4501;DHT22;2263;54.654;9.410;2022-09-03T09:52:27;19.70;56.10
4501;DHT22;2263;54.654;9.410;2022-09-03T09:55:09;19.70;56.50
4501;DHT22;2263;54.654;9.410;2022-09-03T09:57:36;19.70;56.70
4501;DHT22;2263;54.654;9.410;2022-09-03T10:03:06;19.80;56.20
4501;DHT22;2263;54.654;9.410;2022-09-03T10:05:36;19.80;51.60
4501;DHT22;2263;54.654;9.410;2022-09-03T10:08:19;19.70;51.60
4501;DHT22;2263;54.654;9.410;2022-09-03T10:10:50;19.90;51.30
4501;DHT22;2263;54.654;9.410;2022-09-03T10:13:20;19.80;51.40
4501;DHT22;2263;54.654;9.410;2022-09-03T10:16:02;19.70;51.60
4501;DHT22;2263;54.654;9.410;2022-09-03T10:21:40;19.80;50.90
4501;DHT22;2263;54.654;9.410;2022-09-03T10:26:42;19.70;53.60
4501;DHT22;2263;54.654;9.410;2022-09-03T10:29:17;19.70;53.90
4501;DHT22;2263;54.654;9.410;2022-09-03T10:40:43;19.80;54.50
4501;DHT22;2263;54.654;9.410;2022-09-03T10:43:25;19.90;54.40
4501;DHT22;2263;54.654;9.410;2022-09-03T10:51:42;20.10;54.90
4501;DHT22;2263;54.654;9.410;2022-09-03T11:00:10;20.20;55.40
4501;DHT22;2263;54.654;9.410;2022-09-03T11:05:53;20.30;55.40
4501;DHT22;2263;54.654;9.410;2022-09-03T11:08:35;20.50;54.40
4501;DHT22;2263;54.654;9.410;2022-09-03T11:11:23;20.40;54.70
4501;DHT22;2263;54.654;9.410;2022-09-03T11:14:12;20.40;54.80
4501;DHT22;2263;54.654;9.410;2022-09-03T11:16:45;20.40;54.70
4501;DHT22;2263;54.654;9.410;2022-09-03T11:19:19;20.40;55.20
4501;DHT22;2263;54.654;9.410;2022-09-03T11:21:48;20.40;55.00
4501;DHT22;2263;54.654;9.410;2022-09-03T11:24:27;20.50;55.20
4501;DHT22;2263;54.654;9.410;2022-09-03T11:27:04;20.50;54.70
4501;DHT22;2263;54.654;9.410;2022-09-03T11:29:44;20.60;54.70
4501;DHT22;2263;54.654;9.410;2022-09-03T11:32:20;20.60;54.90
4501;DHT22;2263;54.654;9.410;2022-09-03T11:34:52;20.60;55.20
4501;DHT22;2263;54.654;9.410;2022-09-03T11:37:28;20.70;55.10
4501;DHT22;2263;54.654;9.410;2022-09-03T11:39:57;20.70;55.20
4501;DHT22;2263;54.654;9.410;2022-09-03T11:44:52;20.80;55.50
4501;DHT22;2263;54.654;9.410;2022-09-03T11:47:42;20.80;55.30
4501;DHT22;2263;54.654;9.410;2022-09-03T11:52:50;20.80;55.20
4501;DHT22;2263;54.654;9.410;2022-09-03T11:55:32;20.80;55.50
4501;DHT22;2263;54.654;9.410;2022-09-03T11:58:31;20.90;55.50
4501;DHT22;2263;54.654;9.410;2022-09-03T12:01:02;20.90;54.90
4501;DHT22;2263;54.654;9.410;2022-09-03T12:03:49;20.90;55.10
4501;DHT22;2263;54.654;9.410;2022-09-03T12:17:58;21.10;55.40
4501;DHT22;2263;54.654;9.410;2022-09-03T12:20:59;21.20;54.90
4501;DHT22;2263;54.654;9.410;2022-09-03T12:23:39;21.10;55.00
4501;DHT22;2263;54.654;9.410;2022-09-03T12:28:47;21.20;55.20
4501;DHT22;2263;54.654;9.410;2022-09-03T12:31:22;21.20;54.70
4501;DHT22;2263;54.654;9.410;2022-09-03T12:33:53;21.20;55.00
4501;DHT22;2263;54.654;9.410;2022-09-03T12:36:21;21.20;55.00
4501;DHT22;2263;54.654;9.410;2022-09-03T12:38:49;21.20;55.10
4501;DHT22;2263;54.654;9.410;2022-09-03T12:41:36;21.20;55.00
4501;DHT22;2263;54.654;9.410;2022-09-03T12:44:04;21.30;55.10
4501;DHT22;2263;54.654;9.410;2022-09-03T12:46:32;21.30;55.00
4501;DHT22;2263;54.654;9.410;2022-09-03T12:49:01;21.30;54.90
4501;DHT22;2263;54.654;9.410;2022-09-03T12:52:01;21.30;54.90
4501;DHT22;2263;54.654;9.410;2022-09-03T12:54:33;21.30;55.10
4501;DHT22;2263;54.654;9.410;2022-09-03T12:57:02;21.30;55.20
4501;DHT22;2263;54.654;9.410;2022-09-03T12:59:33;21.30;55.10
4501;DHT22;2263;54.654;9.410;2022-09-03T13:02:07;21.30;55.30
4501;DHT22;2263;54.654;9.410;2022-09-03T13:04:39;21.30;55.20
4501;DHT22;2263;54.654;9.410;2022-09-03T13:07:30;21.30;55.10
4501;DHT22;2263;54.654;9.410;2022-09-03T13:10:05;21.30;55.10
4501;DHT22;2263;54.654;9.410;2022-09-03T13:12:45;21.30;55.30
4501;DHT22;2263;54.654;9.410;2022-09-03T13:15:22;21.30;55.10
4501;DHT22;2263;54.654;9.410;2022-09-03T13:20:23;21.40;55.10
4501;DHT22;2263;54.654;9.410;2022-09-03T13:28:10;21.40;55.00
4501;DHT22;2263;54.654;9.410;2022-09-03T13:30:56;21.50;55.10
4501;DHT22;2263;54.654;9.410;2022-09-03T13:33:37;21.50;55.10
4501;DHT22;2263;54.654;9.410;2022-09-03T13:36:14;21.50;55.00
4501;DHT22;2263;54.654;9.410;2022-09-03T13:44:46;21.60;54.90
4501;DHT22;2263;54.654;9.410;2022-09-03T13:50:10;21.60;54.60
4501;DHT22;2263;54.654;9.410;2022-09-03T13:53:01;21.60;54.80
4501;DHT22;2263;54.654;9.410;2022-09-03T13:58:02;21.60;54.80
4501;DHT22;2263;54.654;9.410;2022-09-03T14:03:09;21.60;54.60
4501;DHT22;2263;54.654;9.410;2022-09-03T14:08:31;21.70;54.10
4501;DHT22;2263;54.654;9.410;2022-09-03T14:11:23;21.70;54.20
4501;DHT22;2263;54.654;9.410;2022-09-03T14:14:50;21.60;54.40
4501;DHT22;2263;54.654;9.410;2022-09-03T14:17:09;21.60;53.50
4501;DHT22;2263;54.654;9.410;2022-09-03T14:19:46;21.60;54.30
4501;DHT22;2263;54.654;9.410;2022-09-03T14:22:21;21.60;54.60
4501;DHT22;2263;54.654;9.410;2022-09-03T14:24:57;21.60;54.90
4501;DHT22;2263;54.654;9.410;2022-09-03T14:27:28;21.60;55.00
4501;DHT22;2263;54.654;9.410;2022-09-03T14:30:00;21.60;55.00
4501;DHT22;2263;54.654;9.410;2022-09-03T14:40:45;21.80;55.10
4501;DHT22;2263;54.654;9.410;2022-09-03T14:46:38;21.80;55.20
4501;DHT22;2263;54.654;9.410;2022-09-03T15:11:16;21.90;54.10
4501;DHT22;2263;54.654;9.410;2022-09-03T15:14:12;21.90;54.50
4501;DHT22;2263;54.654;9.410;2022-09-03T15:16:52;21.80;54.40
4501;DHT22;2263;54.654;9.410;2022-09-03T15:28:30;21.70;55.50
4501;DHT22;2263;54.654;9.410;2022-09-03T15:31:23;21.70;54.60
4501;DHT22;2263;54.654;9.410;2022-09-03T15:33:58;21.70;54.60
4501;DHT22;2263;54.654;9.410;2022-09-03T15:36:36;21.60;54.80
4501;DHT22;2263;54.654;9.410;2022-09-03T15:39:12;21.60;54.70
4501;DHT22;2263;54.654;9.410;2022-09-03T15:42:05;21.60;55.00
4501;DHT22;2263;54.654;9.410;2022-09-03T15:44:45;21.60;54.90
4501;DHT22;2263;54.654;9.410;2022-09-03T15:53:18;21.60;54.90
4501;DHT22;2263;54.654;9.410;2022-09-03T16:04:27;21.50;54.50
4501;DHT22;2263;54.654;9.410;2022-09-03T16:07:20;21.40;54.80
4501;DHT22;2263;54.654;9.410;2022-09-03T16:13:04;21.40;54.40
4501;DHT22;2263;54.654;9.410;2022-09-03T16:15:40;21.40;54.40
4501;DHT22;2263;54.654;9.410;2022-09-03T16:20:53;21.40;54.70
4501;DHT22;2263;54.654;9.410;2022-09-03T16:23:37;21.40;54.80
4501;DHT22;2263;54.654;9.410;2022-09-03T16:29:07;21.30;54.70
4501;DHT22;2263;54.654;9.410;2022-09-03T16:34:46;21.30;55.00
4501;DHT22;2263;54.654;9.410;2022-09-03T16:37:37;21.30;55.00
4501;DHT22;2263;54.654;9.410;2022-09-03T17:00:38;21.20;55.10
4501;DHT22;2263;54.654;9.410;2022-09-03T17:03:16;21.20;55.20
4501;DHT22;2263;54.654;9.410;2022-09-03T17:11:42;21.20;55.20
4501;DHT22;2263;54.654;9.410;2022-09-03T17:14:30;21.10;55.20
4501;DHT22;2263;54.654;9.410;2022-09-03T17:19:55;21.10;55.90
4501;DHT22;2263;54.654;9.410;2022-09-03T17:22:41;21.10;55.40
4501;DHT22;2263;54.654;9.410;2022-09-03T17:31:04;21.10;55.60
4501;DHT22;2263;54.654;9.410;2022-09-03T17:33:51;21.10;55.60
4501;DHT22;2263;54.654;9.410;2022-09-03T17:36:26;21.10;55.60
4501;DHT22;2263;54.654;9.410;2022-09-03T17:41:53;21.00;55.70
4501;DHT22;2263;54.654;9.410;2022-09-03T17:44:59;21.00;55.90
4501;DHT22;2263;54.654;9.410;2022-09-03T17:53:24;21.00;56.30
4501;DHT22;2263;54.654;9.410;2022-09-03T17:56:00;21.00;56.30
4501;DHT22;2263;54.654;9.410;2022-09-03T17:59:00;21.00;56.50
4501;DHT22;2263;54.654;9.410;2022-09-03T18:01:34;21.00;56.50
4501;DHT22;2263;54.654;9.410;2022-09-03T18:09:46;20.90;56.80
4501;DHT22;2263;54.654;9.410;2022-09-03T18:18:37;20.90;57.00
4501;DHT22;2263;54.654;9.410;2022-09-03T18:21:12;20.80;57.00
4501;DHT22;2263;54.654;9.410;2022-09-03T18:24:28;20.90;57.30
4501;DHT22;2263;54.654;9.410;2022-09-03T18:27:28;20.80;57.30
4501;DHT22;2263;54.654;9.410;2022-09-03T18:30:20;20.80;57.40
4501;DHT22;2263;54.654;9.410;2022-09-03T18:33:06;20.80;57.50
4501;DHT22;2263;54.654;9.410;2022-09-03T18:35:53;20.80;57.50
4501;DHT22;2263;54.654;9.410;2022-09-03T18:38:39;20.80;58.20
4501;DHT22;2263;54.654;9.410;2022-09-03T18:48:11;20.70;58.00
4501;DHT22;2263;54.654;9.410;2022-09-03T18:56:53;20.70;58.20
4501;DHT22;2263;54.654;9.410;2022-09-03T19:03:18;20.60;58.30
4501;DHT22;2263;54.654;9.410;2022-09-03T19:06:20;20.60;58.30
4501;DHT22;2263;54.654;9.410;2022-09-03T19:09:16;20.60;58.30
4501;DHT22;2263;54.654;9.410;2022-09-03T19:22:27;20.60;58.60
4501;DHT22;2263;54.654;9.410;2022-09-03T19:25:17;20.40;59.20
4501;DHT22;2263;54.654;9.410;2022-09-03T19:28:09;20.30;59.30
4501;DHT22;2263;54.654;9.410;2022-09-03T19:37:36;20.30;59.20
4501;DHT22;2263;54.654;9.410;2022-09-03T19:46:50;20.20;59.00
4501;DHT22;2263;54.654;9.410;2022-09-03T19:52:56;20.20;59.00
4501;DHT22;2263;54.654;9.410;2022-09-03T19:55:46;20.20;58.90
4501;DHT22;2263;54.654;9.410;2022-09-03T19:58:35;20.20;59.10
4501;DHT22;2263;54.654;9.410;2022-09-03T20:01:26;20.20;59.00
4501;DHT22;2263;54.654;9.410;2022-09-03T20:04:15;20.20;59.20
4501;DHT22;2263;54.654;9.410;2022-09-03T20:07:05;20.10;59.00
4501;DHT22;2263;54.654;9.410;2022-09-03T20:09:52;20.10;59.00
4501;DHT22;2263;54.654;9.410;2022-09-03T20:15:22;20.10;59.00
4501;DHT22;2263;54.654;9.410;2022-09-03T20:20:55;20.10;59.00
4501;DHT22;2263;54.654;9.410;2022-09-03T20:29:10;20.00;59.20
4501;DHT22;2263;54.654;9.410;2022-09-03T20:35:04;20.00;59.20
4501;DHT22;2263;54.654;9.410;2022-09-03T20:37:38;20.00;59.30
4501;DHT22;2263;54.654;9.410;2022-09-03T20:57:14;19.90;59.40
4501;DHT22;2263;54.654;9.410;2022-09-03T21:05:21;19.90;59.60
4501;DHT22;2263;54.654;9.410;2022-09-03T21:16:26;19.80;59.60
4501;DHT22;2263;54.654;9.410;2022-09-03T21:19:34;19.80;59.80
4501;DHT22;2263;54.654;9.410;2022-09-03T21:22:17;19.80;59.40
4501;DHT22;2263;54.654;9.410;2022-09-03T21:24:52;19.80;59.70
4501;DHT22;2263;54.654;9.410;2022-09-03T21:27:27;19.80;59.80
4501;DHT22;2263;54.654;9.410;2022-09-03T21:30:06;19.80;60.00
4501;DHT22;2263;54.654;9.410;2022-09-03T21:32:58;19.80;59.90
4501;DHT22;2263;54.654;9.410;2022-09-03T21:35:49;19.80;60.20
4501;DHT22;2263;54.654;9.410;2022-09-03T21:38:25;19.70;59.80
4501;DHT22;2263;54.654;9.410;2022-09-03T21:44:16;19.70;60.10
4501;DHT22;2263;54.654;9.410;2022-09-03T21:46:58;19.70;60.20
4501;DHT22;2263;54.654;9.410;2022-09-03T21:49:37;19.70;60.90
4501;DHT22;2263;54.654;9.410;2022-09-03T21:52:16;19.70;60.30
4501;DHT22;2263;54.654;9.410;2022-09-03T21:54:43;19.60;60.50
4501;DHT22;2263;54.654;9.410;2022-09-03T22:02:45;19.60;60.50
4501;DHT22;2263;54.654;9.410;2022-09-03T22:05:14;19.60;60.40
4501;DHT22;2263;54.654;9.410;2022-09-03T22:15:43;19.60;61.00
4501;DHT22;2263;54.654;9.410;2022-09-03T22:18:25;19.50;60.70
4501;DHT22;2263;54.654;9.410;2022-09-03T22:24:01;19.50;60.80
4501;DHT22;2263;54.654;9.410;2022-09-03T22:26:41;19.50;61.10
4501;DHT22;2263;54.654;9.410;2022-09-03T22:35:24;19.50;61.00
4501;DHT22;2263;54.654;9.410;2022-09-03T22:46:08;19.40;61.00
4501;DHT22;2263;54.654;9.410;2022-09-03T22:51:26;19.30;60.90
4501;DHT22;2263;54.654;9.410;2022-09-03T22:56:46;19.30;61.00
4501;DHT22;2263;54.654;9.410;2022-09-03T22:59:28;19.30;61.10
4501;DHT22;2263;54.654;9.410;2022-09-03T23:02:12;19.30;61.20
4501;DHT22;2263;54.654;9.410;2022-09-03T23:07:21;19.20;61.10
4501;DHT22;2263;54.654;9.410;2022-09-03T23:09:54;19.20;61.10
4501;DHT22;2263;54.654;9.410;2022-09-03T23:15:04;19.20;61.50
4501;DHT22;2263;54.654;9.410;2022-09-03T23:17:41;19.20;61.00
4501;DHT22;2263;54.654;9.410;2022-09-03T23:20:23;19.20;61.20
4501;DHT22;2263;54.654;9.410;2022-09-03T23:22:57;19.20;61.10
4501;DHT22;2263;54.654;9.410;2022-09-03T23:25:32;19.20;61.20
4501;DHT22;2263;54.654;9.410;2022-09-03T23:30:34;19.10;61.00
4501;DHT22;2263;54.654;9.410;2022-09-03T23:33:02;19.10;61.20
4501;DHT22;2263;54.654;9.410;2022-09-03T23:35:37;19.10;61.30
4501;DHT22;2263;54.654;9.410;2022-09-03T23:38:24;19.10;61.20
4501;DHT22;2263;54.654;9.410;2022-09-03T23:41:00;19.10;61.40
4501;DHT22;2263;54.654;9.410;2022-09-03T23:44:10;19.00;61.20
4501;DHT22;2263;54.654;9.410;2022-09-03T23:46:53;19.00;61.50
4501;DHT22;2263;54.654;9.410;2022-09-03T23:55:21;19.00;61.30
